Latest Weather Observations for Urandangi

IDQ60801

Issued at 12:32 pm EST Friday 4 December 2020 (issued every 10 minutes, with the page automatically refreshed every 10 minutes)

About weather observations | Map of weather stations | Latest weather observations for QLD | Other Formats
Station Details ID: 037058 Name: URANDANGI AERODROME Lat: -21.60 Lon: 138.37 Height: 178.6 m
Data from the previous 72 hours. | See also: Recent months at Urandangi
Date/Time
EST
Temp
°C
App
Temp
°C
Dew
Point
°C
Rel
Hum
%
Delta-T
°C
Wind Press
QNH
hPa
Press
MSL
hPa
Rain since
9am
mm
Dir  Spd
km/h
Gust
km/h
Spd
kts
Gust
kts
04/12:30pm 41.6 39.8 10.7 16 18.7 N 11 24 6 13 1008.2 1006.9 0.0
04/12:00pm 41.7 39.5 10.8 16 18.7 NNE 13 20 7 11 1008.6 1007.3 0.0
04/11:30am 41.7 41.5 11.7 17 18.4 E 4 15 2 8 1009.0 1007.7 0.0
04/11:00am 41.0 40.3 12.0 18 17.8 NNE 7 15 4 8 1009.4 1008.1 0.0
04/10:30am 40.2 38.0 12.1 19 17.2 NNE 15 24 8 13 1009.8 1008.5 0.0
04/10:00am 39.4 38.8 12.3 20 16.6 NW 7 22 4 12 1010.2 1008.9 0.0
04/09:30am 38.5 37.0 13.0 22 15.7 NW 13 22 7 12 1010.2 1008.9 0.0
04/09:00am 38.0 35.8 14.5 24 14.8 NW 19 24 10 13 1010.3 1009.0 0.0
04/08:30am 37.2 34.8 14.5 26 14.2 NW 20 30 11 16 1010.3 1009.0 0.0
04/08:00am 36.1 33.6 13.6 26 13.9 NNW 19 28 10 15 1010.3 1009.0 0.0
04/07:30am 35.2 33.4 13.4 27 13.4 N 15 19 8 10 1010.3 1009.0 0.0
04/07:00am 33.5 32.0 13.0 29 12.4 N 13 17 7 9 1010.4 1009.1 0.0
04/06:30am 32.0 29.6 12.8 31 11.5 N 17 22 9 12 1010.1 1008.8 0.0
04/06:00am 31.7 29.6 12.5 31 11.5 N 15 19 8 10 1009.5 1008.2 0.0
04/05:30am 32.0 29.7 11.7 28 12.0 N 15 19 8 10 1009.1 1007.8 0.0
04/05:00am 30.7 28.9 9.6 27 12.0 NNE 9 13 5 7 1008.8 1007.5 0.0
04/04:30am 31.1 28.9 9.3 26 12.3 N 11 11 6 6 1008.6 1007.3 0.0
04/04:00am 30.6 29.5 8.3 25 12.4 NW 4 6 2 3 1008.4 1007.1 0.0
04/03:30am 30.9 30.4 8.0 24 12.7 CALM 0 0 0 0 1008.5 1007.2 0.0
04/03:00am 30.7 28.6 8.4 25 12.4 SSW 9 15 5 8 1008.6 1007.3 0.0
04/02:30am 29.9 29.1 6.5 23 12.6 CALM 0 0 0 0 1008.3 1007.0 0.0
04/02:00am 31.5 30.1 7.2 22 13.4 NW 4 4 2 2 1008.0 1006.7 0.0
04/01:30am 32.5 31.1 8.7 23 13.4 WNW 6 6 3 3 1008.2 1006.9 0.0
04/01:00am 32.8 32.4 8.3 22 13.8 CALM 0 2 0 1 1008.5 1007.2 0.0
04/12:30am 33.8 32.3 8.4 21 14.4 NNE 6 7 3 4 1008.6 1007.3 0.0
04/12:00am 34.7 33.2 8.4 20 15.0 NE 6 7 3 4 1008.8 1007.5 0.0
 
Date/Time
EST
Temp
°C
App
Temp
°C
Dew
Point
°C
Rel
Hum
%
Delta-T
°C
Wind Press
QNH
hPa
Press
MSL
hPa
Rain since
9am
mm
Dir  Spd
km/h
Gust
km/h
Spd
kts
Gust
kts
03/11:30pm 36.1 34.5 8.8 19 15.7 ENE 7 11 4 6 1009.2 1007.9 0.0
03/11:00pm 36.1 33.9 8.0 18 16.0 E 9 13 5 7 1009.3 1008.0 0.0
03/10:30pm 36.2 33.9 7.3 17 16.2 ESE 9 11 5 6 1009.4 1008.1 0.0
03/10:00pm 36.7 33.9 6.8 16 16.7 E 11 13 6 7 1009.1 1007.8 0.0
03/09:30pm 36.4 33.7 5.6 15 16.9 ENE 9 9 5 5 1008.8 1007.5 0.0
03/09:00pm 38.6 35.7 6.3 14 18.1 NE 11 13 6 7 1008.4 1007.1 0.0
03/08:30pm 39.9 36.3 5.1 12 19.3 E 13 19 7 10 1008.2 1006.9 0.0
03/08:00pm 41.2 36.9 3.5 10 20.5 E 15 20 8 11 1007.8 1006.5 0.0
03/07:30pm 42.2 36.8 4.3 10 21.0 ENE 22 30 12 16 1007.3 1005.9 0.0
03/07:00pm 42.6 37.8 4.6 10 21.2 ESE 19 26 10 14 1007.0 1005.6 0.0
03/06:30pm 43.3 39.7 5.1 10 21.5 SE 13 19 7 10 1006.8 1005.4 0.0
03/06:00pm 43.5 40.4 3.7 9 22.0 SE 9 15 5 8 1006.8 1005.4 0.0
03/05:30pm 42.7 39.8 4.6 10 21.2 ESE 9 17 5 9 1006.8 1005.4 0.0
03/05:00pm 43.4 41.9 5.2 10 21.6 W 2 6 1 3 1007.0 1005.6 0.0
03/04:30pm 43.5 39.6 5.2 10 21.6 ESE 15 28 8 15 1007.2 1005.8 0.0
03/04:00pm 44.2 41.2 5.8 10 21.9 ENE 11 20 6 11 1007.4 1006.0 0.0
03/03:30pm 43.5 40.7 5.2 10 21.6 ENE 9 46 5 25 1007.8 1006.5 0.0
03/03:00pm 43.8 39.2 5.5 10 21.7 E 19 28 10 15 1008.2 1006.9 0.0
03/02:30pm 43.5 39.2 5.2 10 21.6 E 17 33 9 18 1008.7 1007.4 0.0
03/02:00pm 43.3 41.1 5.1 10 21.5 E 6 15 3 8 1009.1 1007.8 0.0
03/01:30pm 43.0 40.1 4.9 10 21.3 NNE 9 19 5 10 1009.7 1008.4 0.0
03/01:00pm 42.6 39.7 4.6 10 21.2 E 9 22 5 12 1009.9 1008.6 0.0
03/12:30pm 40.8 38.7 5.8 12 19.7 NW 6 13 3 7 1010.1 1008.8 0.0
03/12:00pm 40.5 38.6 6.7 13 19.2 ESE 6 11 3 6 1010.6 1009.3 0.0
03/11:30am 39.5 36.8 3.6 11 19.4 ESE 7 13 4 7 1011.0 1009.7 0.0
03/11:00am 38.6 35.8 2.9 11 19.0 SE 7 15 4 8 1011.5 1010.2 0.0
03/10:30am 37.7 33.6 2.2 11 18.6 SE 13 20 7 11 1012.2 1010.8 0.0
03/10:00am 35.8 30.3 0.8 11 17.7 SE 19 26 10 14 1012.3 1010.9 0.0
03/09:30am 35.1 29.7 1.5 12 17.1 SSE 19 26 10 14 1012.4 1011.0 0.0
03/09:00am 33.4 27.8 1.3 13 16.2 SSE 20 28 11 15 1012.3 1010.9 0.0
03/08:30am 33.0 27.5 2.0 14 15.7 SSE 20 30 11 16 1011.9 1010.6 0.0
03/08:00am 31.5 25.4 2.7 16 14.7 SSE 24 32 13 17 1012.1 1010.7 0.0
03/07:30am 30.6 25.3 2.8 17 14.1 SSE 20 28 11 15 1011.8 1010.5 0.0
03/07:00am 29.6 24.3 2.8 18 13.5 SSE 20 32 11 17 1011.6 1010.3 0.0
03/06:30am 28.8 24.4 2.9 19 13.0 SSE 15 22 8 12 1011.3 1010.0 0.0
03/06:00am 28.7 24.1 3.5 20 12.8 SSE 17 22 9 12 1010.7 1009.4 0.0
03/05:30am 29.1 24.5 3.9 20 12.9 SSE 17 24 9 13 1010.5 1009.2 0.0
03/05:00am 29.4 24.4 3.4 19 13.2 SSE 19 26 10 14 1010.1 1008.8 0.0
03/04:30am 29.9 24.4 3.8 19 13.4 SSE 22 30 12 16 1010.0 1008.7 0.0
03/04:00am 30.3 25.1 3.4 18 13.8 SSE 20 30 11 16 1009.9 1008.6 0.0
03/03:30am 30.9 25.2 3.0 17 14.2 SSE 22 35 12 19 1009.4 1008.1 0.0
03/03:00am 31.0 25.6 2.3 16 14.5 SSE 20 28 11 15 1009.2 1007.9 0.0
03/02:30am 31.5 25.6 1.8 15 14.9 S 22 35 12 19 1009.2 1007.9 0.0
03/02:00am 31.8 25.6 2.0 15 15.0 S 24 33 13 18 1009.4 1008.1 0.0
03/01:30am 32.2 25.6 2.3 15 15.2 S 26 35 14 19 1009.7 1008.4 0.0
03/01:00am 32.9 26.4 2.9 15 15.5 S 26 35 14 19 1009.8 1008.5 0.0
03/12:30am 33.4 27.0 3.3 15 15.6 S 26 35 14 19 1009.9 1008.6 0.0
03/12:00am 33.7 26.6 3.5 15 15.8 S 30 43 16 23 1010.1 1008.8 0.0
 
Date/Time
EST
Temp
°C
App
Temp
°C
Dew
Point
°C
Rel
Hum
%
Delta-T
°C
Wind Press
QNH
hPa
Press
MSL
hPa
Rain since
9am
mm
Dir  Spd
km/h
Gust
km/h
Spd
kts
Gust
kts
02/11:30pm 34.2 26.8 3.9 15 16.0 S 32 43 17 23 1009.9 1008.6 0.0
02/11:00pm 35.2 27.6 3.7 14 16.7 S 33 48 18 26 1009.9 1008.6 0.0
02/10:30pm 36.1 28.6 4.4 14 17.0 SSW 33 48 18 26 1009.6 1008.3 0.0
02/10:04pm 37.4 30.8 4.4 13 17.8 SSW 28 48 15 26 1008.8 1007.5 0.0
02/10:00pm 37.4 32.6 4.4 13 17.9 SSW 19 37 10 20 1008.9 1007.6 0.0
02/09:30pm 38.0 30.9 3.7 12 18.4 SSW 30 46 16 25 1008.3 1007.0 0.0
02/09:00pm 38.3 31.6 3.9 12 18.6 SW 28 43 15 23 1007.8 1006.5 0.0
02/08:41pm 38.9 34.0 1.8 10 19.4 WSW 17 37 9 20 1007.7 1006.3 0.0
02/08:30pm 38.4 34.9 -1.6 8 19.8 WSW 7 9 4 5 1007.6 1006.2 0.0
02/08:00pm 39.0 35.5 -1.2 8 20.2 SW 7 9 4 5 1007.3 1005.9 0.0
02/07:30pm 39.9 36.3 -2.4 7 20.9 SW 7 9 4 5 1007.0 1005.6 0.0
02/07:00pm 41.3 37.2 -3.4 6 22.0 SSW 9 15 5 8 1006.7 1005.3 0.0
02/06:30pm 42.4 39.0 -0.6 7 22.2 SSW 7 11 4 6 1006.4 1005.0 0.0
02/06:00pm 42.7 38.6 -0.4 7 22.4 S 11 20 6 11 1006.3 1004.9 0.0
02/05:30pm 43.3 38.5 0.1 7 22.6 S 15 28 8 15 1006.0 1004.7 0.0
02/05:00pm 43.2 40.1 0.0 7 22.6 WSW 6 13 3 7 1006.4 1005.0 0.0
02/04:30pm 43.3 40.2 0.1 7 22.6 S 6 13 3 7 1006.5 1005.1 0.0
02/04:00pm 42.5 38.2 1.3 8 21.9 ESE 13 20 7 11 1007.0 1005.6 0.0
02/03:30pm 42.7 38.9 1.5 8 21.9 S 11 26 6 14 1007.4 1006.0 0.0
02/03:00pm 43.4 38.1 2.0 8 22.3 SSE 19 32 10 17 1007.9 1006.6 0.0
02/02:30pm 41.6 37.8 3.8 10 20.7 S 13 24 7 13 1008.3 1007.0 0.0
02/02:00pm 42.5 37.1 4.5 10 21.1 SSW 22 35 12 19 1008.8 1007.5 0.0
02/01:30pm 40.6 34.8 4.4 11 19.9 SSW 24 39 13 21 1009.3 1008.0 0.0
02/01:00pm 39.7 34.8 5.0 12 19.2 SSE 20 33 11 18 1009.8 1008.5 0.0
02/12:30pm 39.2 34.0 5.7 13 18.6 SSE 22 33 12 18 1010.3 1009.0 0.0
02/12:00pm 38.8 34.2 6.5 14 18.2 S 20 30 11 16 1010.7 1009.4 0.0
02/11:30am 37.1 31.7 6.2 15 17.2 S 24 35 13 19 1011.0 1009.7 0.0
02/11:00am 36.1 31.1 6.3 16 16.5 S 22 35 12 19 1011.3 1010.0 0.0
02/10:30am 35.0 29.8 7.1 18 15.5 S 24 32 13 17 1011.7 1010.4 0.0
02/10:00am 34.2 29.0 7.3 19 15.0 S 24 39 13 21 1012.1 1010.7 0.0
02/09:30am 32.7 27.2 7.5 21 14.0 S 26 39 14 21 1012.3 1010.9 0.0
02/09:00am 31.8 25.9 7.5 22 13.4 S 28 39 15 21 1012.2 1010.8 0.0
02/08:30am 30.8 24.6 7.9 24 12.7 S 30 41 16 22 1012.2 1010.8 0.0
02/08:00am 30.4 25.8 8.2 25 12.3 S 22 33 12 18 1012.2 1010.8 0.0
02/07:30am 29.6 24.6 8.1 26 11.8 SSW 24 33 13 18 1011.9 1010.6 0.0
02/07:00am 28.8 24.7 7.9 27 11.4 SSW 19 28 10 15 1011.6 1010.3 0.0
02/06:30am 28.1 25.0 7.4 27 11.2 SSW 13 19 7 10 1011.1 1009.8 0.0
02/06:00am 28.1 24.6 7.4 27 11.2 SW 15 20 8 11 1010.8 1009.5 0.0
02/05:30am 28.9 25.3 6.9 25 11.8 SSW 15 24 8 13 1010.4 1009.1 0.0
02/05:00am 29.6 25.3 6.9 24 12.3 SSW 19 28 10 15 1010.0 1008.7 0.0
02/04:30am 30.2 26.2 6.8 23 12.7 SW 17 22 9 12 1009.7 1008.4 0.0
02/04:00am 30.9 27.1 7.4 23 12.9 S 17 26 9 14 1009.0 1007.7 0.0
02/03:30am 31.6 27.0 8.0 23 13.1 S 22 32 12 17 1008.3 1007.0 0.0
02/03:00am 32.2 27.7 8.4 23 13.4 SSE 22 37 12 20 1008.0 1006.7 0.0
02/02:30am 32.9 29.3 9.7 24 13.3 SSE 19 28 10 15 1008.3 1007.0 0.0
02/02:00am 33.2 27.3 10.5 25 13.2 S 32 44 17 24 1007.6 1006.2 0.0
02/01:30am 33.5 28.1 10.8 25 13.3 S 30 44 16 24 1007.5 1006.1 0.0
02/01:27am 33.3 28.0 10.0 24 13.5 S 28 41 15 22 1007.5 1006.1 0.0
02/01:00am 29.9 28.4 5.2 21 13.0 SSE 2 6 1 3 1007.2 1005.8 0.0
02/12:30am 30.5 28.8 5.7 21 13.2 S 4 6 2 3 1007.4 1006.0 0.0
02/12:00am 30.7 28.3 5.2 20 13.5 SSE 7 7 4 4 1007.5 1006.1 0.0
 
Date/Time
EST
Temp
°C
App
Temp
°C
Dew
Point
°C
Rel
Hum
%
Delta-T
°C
Wind Press
QNH
hPa
Press
MSL
hPa
Rain since
9am
mm
Dir  Spd
km/h
Gust
km/h
Spd
kts
Gust
kts
01/11:30pm 31.1 28.9 5.5 20 13.6 SSE 6 6 3 3 1007.7 1006.3 0.0
01/11:00pm 32.1 31.3 6.3 20 14.0 CALM 0 2 0 1 1007.7 1006.3 0.0
01/10:30pm 32.0 31.0 5.5 19 14.2 CALM 0 0 0 0 1007.6 1006.2 0.0
01/10:00pm 34.0 31.8 5.5 17 15.4 ESE 6 6 3 3 1007.2 1005.8 0.0
01/09:30pm 34.1 32.3 5.6 17 15.4 SSE 4 6 2 3 1007.0 1005.6 0.0
01/09:00pm 35.4 33.9 4.8 15 16.5 ESE 2 6 1 3 1006.9 1005.5 0.0
01/08:30pm 36.3 34.0 4.6 14 17.1 ESE 6 6 3 3 1006.5 1005.1 0.0
01/08:00pm 38.2 36.1 6.0 14 18.0 ESE 6 9 3 5 1005.9 1004.6 0.0
01/07:30pm 40.0 37.2 5.2 12 19.3 ESE 9 13 5 7 1005.6 1004.3 0.0
01/07:00pm 41.6 40.4 6.4 12 20.1 SE 2 4 1 2 1005.5 1004.2 0.0
01/06:30pm 42.4 40.0 7.0 12 20.4 SE 9 15 5 8 1005.4 1004.1 0.0
01/06:00pm 42.9 39.9 6.2 11 21.0 E 11 19 6 10 1005.4 1004.1 0.0
01/05:30pm 43.5 41.4 6.6 11 21.2 SW 7 13 4 7 1005.3 1004.0 0.0
01/05:00pm 42.7 41.3 7.3 12 20.5 SE 4 9 2 5 1005.4 1004.1 0.0
01/04:30pm 42.2 41.0 8.1 13 19.9 E 4 7 2 4 1005.9 1004.6 0.0
01/04:00pm 42.4 39.1 8.2 13 20.1 SE 15 20 8 11 1006.2 1004.8 0.0
01/03:30pm 42.9 40.9 8.6 13 20.2 NNE 9 17 5 9 1006.5 1005.1 0.0
01/03:00pm 43.0 41.6 8.7 13 20.3 S 6 11 3 6 1007.1 1005.7 0.0
01/02:30pm 42.2 39.8 10.2 15 19.2 SSW 13 20 7 11 1007.5 1006.1 0.0
01/02:00pm 42.0 39.6 10.0 15 19.2 SSE 13 19 7 10 1008.0 1006.7 0.0
01/01:30pm 41.8 40.1 9.9 15 19.1 W 9 15 5 8 1008.4 1007.1 0.0
01/01:00pm 42.1 40.6 12.0 17 18.6 NNE 11 22 6 12 1008.9 1007.6 0.0

Other formats

Comma delimited format used in spreadsheet applications
http://www.bom.gov.au/fwo/IDQ60801/IDQ60801.94344.axf

JavaScript Object Notation format (JSON) in row-major order
http://www.bom.gov.au/fwo/IDQ60801/IDQ60801.94344.json

Data quality

Most of these data are generated automatically and are frequently updated. Quality checks on data are not normally performed. It is possible for incorrect values to appear. Refer to information at About Latest Weather Observations and please check the disclaimer before using these data.